Time;durP1;ratioP1;P1;durP2;ratioP2;P2;SDS_P1;SDS_P2;PMS_P1;PMS_P2;Temp;Humidity;BMP_temperature;BMP_pressure;BME280_temperature;BME280_humidity;BME280_pressure;Samples;Min_cycle;Max_cycle;Signal;HPM_P1;HPM_P2
2022/03/12 00:01:43;;;;;;;7.23;5.27;;;;;;;4.82;33.92;100487.38;5081970;28;20440;-63
2022/03/12 00:04:10;;;;;;;6.27;5.40;;;;;;;4.75;33.49;100489.56;5080899;28;20527;-63
2022/03/12 00:06:37;;;;;;;6.90;5.17;;;;;;;4.89;33.71;100493.97;5088579;28;20464;-63
2022/03/12 00:09:05;;;;;;;8.30;5.53;;;;;;;4.79;33.85;100491.09;5080543;28;20486;-63
2022/03/12 00:11:34;;;;;;;6.63;5.03;;;;;;;4.86;34.17;100484.44;5081328;28;20468;-63
2022/03/12 00:14:02;;;;;;;6.07;5.43;;;;;;;4.74;34.02;100482.59;5080283;28;20456;-63
2022/03/12 00:16:29;;;;;;;7.80;4.63;;;;;;;4.68;34.08;100478.50;5067482;28;20440;-64
2022/03/12 00:18:58;;;;;;;7.30;5.10;;;;;;;4.62;34.44;100478.06;5086470;28;20876;-64
2022/03/12 00:21:25;;;;;;;12.40;5.10;;;;;;;4.61;34.08;100473.72;5084673;28;20455;-64
2022/03/12 00:23:53;;;;;;;7.97;5.17;;;;;;;4.67;33.95;100481.25;5095399;28;20439;-64
2022/03/12 00:26:22;;;;;;;8.67;5.87;;;;;;;4.69;34.02;100490.81;5090064;28;20450;-64
2022/03/12 00:28:53;;;;;;;8.40;5.67;;;;;;;4.64;34.19;100486.75;5086214;28;20454;-64
2022/03/12 00:31:20;;;;;;;9.50;5.90;;;;;;;4.60;34.04;100485.22;5096164;28;20440;-64
2022/03/12 00:33:47;;;;;;;7.40;5.03;;;;;;;4.48;34.16;100471.84;5086229;28;20458;-64
2022/03/12 00:36:14;;;;;;;6.37;4.90;;;;;;;4.48;34.88;100477.13;5084292;28;20491;-64
2022/03/12 00:38:41;;;;;;;8.40;4.87;;;;;;;4.50;34.02;100477.03;5084672;28;20524;-64
2022/03/12 00:41:08;;;;;;;6.63;4.90;;;;;;;4.48;33.79;100477.13;5083346;28;20479;-64
2022/03/12 00:43:35;;;;;;;7.33;5.50;;;;;;;4.50;33.75;100475.22;5084908;28;20436;-64
2022/03/12 00:46:05;;;;;;;7.67;4.90;;;;;;;4.42;33.92;100471.38;5083433;28;20770;-64
2022/03/12 00:48:32;;;;;;;6.93;4.90;;;;;;;4.48;33.90;100466.53;5082665;28;20452;-64
2022/03/12 00:50:59;;;;;;;6.50;5.07;;;;;;;4.45;33.86;100477.31;5083412;28;20462;-65
2022/03/12 00:53:25;;;;;;;9.77;4.90;;;;;;;4.40;34.03;100473.25;5082070;28;20855;-64
2022/03/12 00:55:52;;;;;;;7.43;5.37;;;;;;;4.37;34.16;100474.28;5072521;28;20586;-64
2022/03/12 00:58:18;;;;;;;6.50;5.77;;;;;;;4.36;34.32;100469.09;5072737;28;20448;-64
2022/03/12 01:00:45;;;;;;;7.70;4.77;;;;;;;4.24;33.97;100466.28;5064916;28;20443;-64
2022/03/12 01:03:14;;;;;;;10.00;5.27;;;;;;;4.26;34.00;100461.72;5082896;28;20436;-64
2022/03/12 01:05:53;;;;;;;7.23;5.03;;;;;;;4.27;34.29;100458.16;5065965;28;20449;-65
2022/03/12 01:08:22;;;;;;;6.30;4.87;;;;;;;4.17;33.38;100458.78;5064323;28;20511;-65
2022/03/12 01:10:49;;;;;;;6.37;5.13;;;;;;;4.26;33.35;100450.28;5078988;28;20459;-65
2022/03/12 01:13:15;;;;;;;6.07;4.40;;;;;;;4.21;33.47;100455.88;5084659;28;20454;-65
2022/03/12 01:15:43;;;;;;;6.63;5.33;;;;;;;4.29;33.48;100458.91;5083050;28;20460;-65
2022/03/12 01:18:11;;;;;;;5.13;4.30;;;;;;;4.30;33.32;100455.28;5073894;28;20440;-65
2022/03/12 01:20:40;;;;;;;9.83;6.07;;;;;;;4.32;33.58;100453.41;5064325;28;20498;-65
2022/03/12 01:23:07;;;;;;;8.00;4.97;;;;;;;4.29;32.71;100448.31;5080970;28;20797;-65
2022/03/12 01:25:34;;;;;;;5.43;4.80;;;;;;;4.29;33.23;100448.31;5064311;28;20488;-65
2022/03/12 01:28:00;;;;;;;8.97;4.80;;;;;;;4.39;32.77;100450.38;5079715;28;20478;-65
2022/03/12 01:30:28;;;;;;;5.90;5.30;;;;;;;4.38;32.46;100467.22;5075870;28;20444;-65
2022/03/12 01:32:55;;;;;;;9.20;5.47;;;;;;;4.41;32.63;100459.94;5082329;28;20431;-65
2022/03/12 01:35:22;;;;;;;8.57;4.70;;;;;;;4.35;32.72;100473.53;5082784;28;21041;-65
2022/03/12 01:37:51;;;;;;;10.63;4.53;;;;;;;4.42;32.46;100480.16;5082891;28;20515;-64
2022/03/12 01:40:18;;;;;;;5.40;4.10;;;;;;;4.29;32.15;100485.34;5104089;28;20470;-64
2022/03/12 01:42:44;;;;;;;6.17;4.60;;;;;;;4.29;32.41;100479.22;5101015;28;20466;-64
2022/03/12 01:45:12;;;;;;;6.57;4.30;;;;;;;4.33;32.88;100470.13;5103775;28;20459;-66
2022/03/12 01:47:40;;;;;;;5.40;4.37;;;;;;;4.25;32.96;100467.09;5102451;28;20439;-65
2022/03/12 01:50:08;;;;;;;4.47;3.77;;;;;;;4.11;32.67;100482.06;5102742;28;20527;-65
2022/03/12 01:52:34;;;;;;;7.57;5.03;;;;;;;4.10;32.98;100472.41;5087631;28;20455;-65
2022/03/12 01:55:04;;;;;;;9.00;5.10;;;;;;;4.05;32.79;100482.41;5087028;28;20500;-65
2022/03/12 01:57:31;;;;;;;7.47;4.83;;;;;;;4.07;32.69;100477.03;5084093;28;20468;-65
2022/03/12 01:59:59;;;;;;;6.47;4.43;;;;;;;4.08;32.82;100484.00;5094659;28;20473;-65
2022/03/12 02:02:25;;;;;;;8.40;4.70;;;;;;;3.94;33.01;100479.56;5092191;28;20440;-65
2022/03/12 02:04:52;;;;;;;7.27;5.23;;;;;;;4.05;32.52;100478.94;5083184;28;20424;-65
2022/03/12 02:07:21;;;;;;;7.27;4.73;;;;;;;4.09;32.79;100470.69;5096223;28;20463;-65
2022/03/12 02:09:48;;;;;;;7.20;4.83;;;;;;;4.01;32.88;100466.81;5103277;28;20478;-65
2022/03/12 02:12:16;;;;;;;9.70;4.20;;;;;;;3.94;32.63;100464.56;5083841;28;20467;-65
2022/03/12 02:14:43;;;;;;;6.87;4.63;;;;;;;4.04;32.79;100462.19;5083136;28;20516;-65
2022/03/12 02:17:11;;;;;;;4.73;4.23;;;;;;;4.01;32.59;100464.16;5096678;28;20456;-66
2022/03/12 02:19:39;;;;;;;7.37;4.73;;;;;;;3.98;32.35;100465.22;5082410;28;20459;-65
2022/03/12 02:22:07;;;;;;;8.83;4.57;;;;;;;3.98;32.16;100459.09;5092655;28;20487;-66
2022/03/12 02:24:37;;;;;;;4.90;4.33;;;;;;;3.99;32.25;100464.25;5084489;28;20444;-66
2022/03/12 02:27:05;;;;;;;6.90;3.80;;;;;;;4.04;32.57;100462.19;5101982;28;20431;-65
2022/03/12 02:29:33;;;;;;;7.97;4.80;;;;;;;3.96;32.44;100462.66;5083708;28;20448;-65
2022/03/12 02:32:01;;;;;;;7.30;4.43;;;;;;;4.06;32.56;100459.44;5083277;28;20446;-65
2022/03/12 02:34:30;;;;;;;5.60;4.30;;;;;;;4.06;32.51;100467.38;5097038;28;20435;-65
2022/03/12 02:36:57;;;;;;;4.80;4.10;;;;;;;3.96;32.07;100465.31;5102167;28;20477;-65
2022/03/12 02:39:27;;;;;;;5.03;4.40;;;;;;;3.91;32.60;100455.97;5100327;28;20546;-64
2022/03/12 02:41:56;;;;;;;6.00;4.83;;;;;;;3.86;32.58;100461.50;5102344;28;20470;-64
2022/03/12 02:44:26;;;;;;;6.83;4.73;;;;;;;3.86;32.55;100447.44;5102716;28;20433;-64
2022/03/12 02:47:13;;;;;;;6.40;4.97;;;;;;;3.81;32.91;100455.66;5101397;28;20448;-64
2022/03/12 02:49:43;;;;;;;7.13;4.33;;;;;;;3.80;32.37;100453.94;5094892;28;20455;-65
2022/03/12 02:52:10;;;;;;;6.03;4.40;;;;;;;3.88;32.49;100453.50;5083119;28;20460;-65
2022/03/12 02:54:36;;;;;;;12.70;4.57;;;;;;;3.93;32.61;100454.06;5091383;28;20519;-64
2022/03/12 02:57:05;;;;;;;5.30;4.00;;;;;;;3.85;32.67;100459.81;5082642;28;20448;-64
2022/03/12 02:59:33;;;;;;;6.37;4.47;;;;;;;3.96;32.39;100464.47;5082147;28;20521;-64
2022/03/12 03:02:03;;;;;;;9.50;4.00;;;;;;;4.02;31.77;100468.53;5083723;28;21007;-64
2022/03/12 03:04:34;;;;;;;5.40;3.97;;;;;;;3.96;31.88;100456.53;5083708;28;20472;-64
2022/03/12 03:07:01;;;;;;;5.97;4.30;;;;;;;4.03;31.77;100471.09;5088389;28;20487;-65
2022/03/12 03:09:28;;;;;;;8.63;4.20;;;;;;;3.99;31.54;100477.47;5083806;28;20452;-64
2022/03/12 03:11:56;;;;;;;5.60;3.90;;;;;;;4.08;31.31;100471.66;5102221;28;20469;-64
2022/03/12 03:14:26;;;;;;;6.33;4.17;;;;;;;4.12;31.89;100469.66;5102324;28;20443;-65
2022/03/12 03:16:53;;;;;;;6.30;4.57;;;;;;;4.04;31.49;100472.75;5088706;28;20635;-66
2022/03/12 03:19:25;;;;;;;6.83;4.77;;;;;;;4.05;31.80;100476.28;5091899;28;20516;-66
2022/03/12 03:21:53;;;;;;;5.63;4.40;;;;;;;4.08;31.68;100469.00;5070004;28;21087;-66
2022/03/12 03:24:20;;;;;;;5.50;3.90;;;;;;;4.04;31.94;100480.69;5087387;28;20443;-66
2022/03/12 03:26:51;;;;;;;6.70;4.00;;;;;;;3.96;31.39;100477.69;5092547;28;20443;-66
2022/03/12 03:29:19;;;;;;;8.10;3.90;;;;;;;4.05;32.00;100490.34;5096050;28;20515;-66
2022/03/12 03:31:48;;;;;;;5.87;4.27;;;;;;;4.04;31.61;100478.06;5098308;28;20467;-65
2022/03/12 03:34:15;;;;;;;6.17;3.90;;;;;;;4.03;31.29;100492.25;5082399;28;20475;-65
2022/03/12 03:36:42;;;;;;;6.53;3.97;;;;;;;4.10;31.40;100490.94;5081244;28;20514;-65
2022/03/12 03:39:09;;;;;;;4.37;3.97;;;;;;;4.11;31.63;100490.00;5069550;28;20484;-65
2022/03/12 03:41:35;;;;;;;7.10;4.20;;;;;;;4.18;30.82;100493.09;5080125;28;20433;-64
2022/03/12 03:44:02;;;;;;;6.30;4.03;;;;;;;4.27;31.49;100489.91;5081606;28;20463;-65
2022/03/12 03:46:29;;;;;;;6.50;4.37;;;;;;;4.25;31.03;100488.28;5079701;28;20436;-64
2022/03/12 03:48:57;;;;;;;8.80;4.33;;;;;;;4.20;31.28;100493.00;5066208;28;20522;-64
2022/03/12 03:51:23;;;;;;;9.23;4.00;;;;;;;4.14;31.74;100488.94;5068113;28;20464;-65
2022/03/12 03:53:51;;;;;;;6.93;4.83;;;;;;;4.22;31.65;100499.91;5081005;28;20435;-65
2022/03/12 03:56:18;;;;;;;5.13;4.03;;;;;;;4.16;31.52;100505.56;5076784;28;20475;-65
2022/03/12 03:58:45;;;;;;;5.37;4.07;;;;;;;4.12;31.63;100504.91;5081487;28;20444;-65
2022/03/12 04:01:16;;;;;;;5.50;4.77;;;;;;;4.21;31.68;100510.59;5062120;28;20441;-65
2022/03/12 04:03:48;;;;;;;5.80;4.33;;;;;;;4.13;31.77;100509.28;5061326;28;20587;-66
2022/03/12 04:06:17;;;;;;;5.00;4.20;;;;;;;4.14;31.86;100518.88;5080468;28;20478;-65
2022/03/12 04:08:44;;;;;;;5.80;4.60;;;;;;;4.13;31.41;100509.28;5081321;28;20444;-66
2022/03/12 04:11:15;;;;;;;5.90;4.03;;;;;;;4.11;31.45;100508.53;5063831;28;20928;-65
2022/03/12 04:13:42;;;;;;;8.20;4.60;;;;;;;4.13;31.26;100519.84;5060723;28;20433;-65
2022/03/12 04:16:10;;;;;;;4.63;3.97;;;;;;;4.21;31.84;100522.03;5072855;28;20500;-66
2022/03/12 04:18:37;;;;;;;5.40;3.73;;;;;;;4.19;31.52;100523.06;5069805;28;20445;-65
2022/03/12 04:21:05;;;;;;;6.67;4.43;;;;;;;4.13;31.78;100525.16;5065350;28;20472;-65
2022/03/12 04:23:34;;;;;;;5.43;4.00;;;;;;;4.01;31.66;100530.31;5064048;28;20481;-65
2022/03/12 04:26:02;;;;;;;4.33;3.93;;;;;;;4.08;31.62;100526.34;5078195;28;20451;-65
2022/03/12 04:28:32;;;;;;;5.43;4.33;;;;;;;4.11;31.78;100529.69;5064231;28;20445;-64
2022/03/12 04:31:00;;;;;;;5.30;4.67;;;;;;;4.07;31.92;100537.88;5068073;28;20969;-64
2022/03/12 04:33:28;;;;;;;8.43;4.27;;;;;;;4.06;31.79;100542.34;5080954;28;20460;-65
2022/03/12 04:35:55;;;;;;;5.60;4.00;;;;;;;4.04;31.94;100530.13;5068371;28;20619;-65
2022/03/12 04:38:22;;;;;;;5.80;4.30;;;;;;;3.99;32.26;100533.03;5074861;28;20475;-65
2022/03/12 04:40:51;;;;;;;7.83;4.23;;;;;;;4.06;32.21;100542.34;5093741;28;20454;-66
2022/03/12 04:43:17;;;;;;;7.47;4.03;;;;;;;4.04;31.94;100536.25;5088247;28;20468;-65
2022/03/12 04:45:45;;;;;;;6.63;4.67;;;;;;;3.95;31.96;100534.19;5082509;28;20481;-66
2022/03/12 04:48:14;;;;;;;5.53;4.03;;;;;;;3.99;31.52;100537.47;5080933;28;20444;-65
2022/03/12 04:50:41;;;;;;;5.77;3.90;;;;;;;4.03;31.83;100544.28;5083299;28;20460;-65
2022/03/12 04:53:09;;;;;;;6.23;4.20;;;;;;;4.03;32.00;100539.88;5095498;28;20463;-65
2022/03/12 04:55:36;;;;;;;5.60;4.10;;;;;;;4.09;32.19;100542.13;5081984;28;20489;-64
2022/03/12 04:58:05;;;;;;;7.27;4.70;;;;;;;3.93;31.65;100538.72;5093606;28;20475;-64
2022/03/12 05:00:36;;;;;;;6.63;4.40;;;;;;;3.95;31.79;100542.94;5096813;28;21015;-64
2022/03/12 05:03:07;;;;;;;5.50;4.00;;;;;;;3.96;31.75;100546.47;5088859;28;20440;-64
2022/03/12 05:05:34;;;;;;;10.40;4.70;;;;;;;4.05;31.80;100548.56;5100351;28;20854;-64
2022/03/12 05:08:01;;;;;;;6.23;4.30;;;;;;;3.95;32.27;100550.88;5086617;28;20981;-65
2022/03/12 05:10:29;;;;;;;5.87;3.90;;;;;;;4.01;32.15;100551.47;5099394;28;20456;-65
2022/03/12 05:13:00;;;;;;;8.33;5.10;;;;;;;3.98;32.14;100554.31;5086310;28;20443;-65
2022/03/12 05:15:31;;;;;;;5.30;4.30;;;;;;;3.99;32.78;100554.19;5084569;28;20451;-65
2022/03/12 05:17:58;;;;;;;5.40;4.20;;;;;;;4.00;32.48;100555.91;5084137;28;20466;-65
2022/03/12 05:20:26;;;;;;;6.00;4.53;;;;;;;3.79;32.68;100559.84;5098137;28;20458;-65
2022/03/12 05:22:54;;;;;;;6.20;3.60;;;;;;;3.85;33.14;100570.03;5102615;28;20442;-65
2022/03/12 05:25:21;;;;;;;5.00;4.50;;;;;;;3.84;32.74;100571.00;5101332;28;21036;-65
2022/03/12 05:27:49;;;;;;;7.77;4.17;;;;;;;3.79;32.88;100567.78;5093168;28;20451;-65
2022/03/12 05:30:16;;;;;;;8.20;4.77;;;;;;;3.90;32.97;100576.75;5102209;28;20485;-65
2022/03/12 05:32:44;;;;;;;5.77;4.10;;;;;;;3.88;32.95;100578.66;5102553;28;20810;-64
2022/03/12 05:35:11;;;;;;;7.30;4.90;;;;;;;3.96;33.25;100573.78;5098581;28;20488;-65
2022/03/12 05:37:38;;;;;;;7.03;3.90;;;;;;;3.83;33.21;100569.28;5102569;28;20489;-65
2022/03/12 05:40:07;;;;;;;7.10;4.70;;;;;;;3.95;33.22;100579.97;5098039;28;20694;-62
2022/03/12 05:42:34;;;;;;;7.57;5.07;;;;;;;4.04;32.76;100577.75;5085551;28;20444;-62
2022/03/12 05:45:01;;;;;;;10.40;4.70;;;;;;;4.05;33.07;100585.59;5092108;28;20441;-62
2022/03/12 05:47:28;;;;;;;8.60;4.73;;;;;;;4.14;33.34;100584.19;5091253;28;20448;-62
2022/03/12 05:49:57;;;;;;;4.93;4.33;;;;;;;4.15;32.91;100585.91;5090223;28;20458;-64
2022/03/12 05:52:24;;;;;;;7.77;4.27;;;;;;;4.19;32.89;100583.94;5103910;28;20455;-69
2022/03/12 05:54:51;;;;;;;5.60;4.13;;;;;;;4.15;33.48;100592.06;5104163;28;20522;-62
2022/03/12 05:57:17;;;;;;;6.40;4.83;;;;;;;4.17;33.09;100594.63;5103720;28;20514;-64
2022/03/12 05:59:46;;;;;;;10.00;4.63;;;;;;;4.26;33.10;100593.22;5104048;28;20961;-62
2022/03/12 06:02:13;;;;;;;8.00;4.53;;;;;;;4.26;32.97;100594.06;5089571;28;20444;-61
2022/03/12 06:04:40;;;;;;;6.10;4.27;;;;;;;4.38;32.64;100596.94;5083671;28;20535;-62
2022/03/12 06:07:09;;;;;;;6.23;4.17;;;;;;;4.56;32.52;100590.50;5071503;28;20452;-61
2022/03/12 06:09:36;;;;;;;6.80;4.47;;;;;;;4.62;32.86;100597.25;5063712;28;20460;-61
2022/03/12 06:12:03;;;;;;;6.30;4.83;;;;;;;4.45;33.29;100591.16;5063728;28;20429;-61
2022/03/12 06:14:31;;;;;;;6.10;4.07;;;;;;;4.33;33.02;100600.69;5070574;28;20440;-61
2022/03/12 06:16:57;;;;;;;7.13;3.83;;;;;;;4.36;32.82;100604.09;5083340;28;20487;-61
2022/03/12 06:19:24;;;;;;;8.17;4.47;;;;;;;4.44;33.02;100601.84;5082914;28;20456;-61
2022/03/12 06:21:51;;;;;;;9.40;4.00;;;;;;;4.49;33.33;100603.25;5091058;28;20458;-61
2022/03/12 06:24:19;;;;;;;4.87;3.80;;;;;;;4.54;32.69;100597.69;5104115;28;20427;-62
2022/03/12 06:26:45;;;;;;;5.90;4.10;;;;;;;4.80;32.66;100597.88;5096468;28;20820;-63
2022/03/12 06:29:13;;;;;;;17.80;4.67;;;;;;;4.96;32.15;100601.28;5100268;28;20518;-62
2022/03/12 06:31:41;;;;;;;4.80;3.93;;;;;;;5.17;31.96;100611.47;5093575;28;20451;-63
2022/03/12 06:34:09;;;;;;;7.47;4.97;;;;;;;5.17;32.50;100604.38;5083097;28;20443;-62
2022/03/12 06:36:37;;;;;;;6.23;4.90;;;;;;;5.32;33.00;100594.59;5083052;28;20993;-63
2022/03/12 06:39:04;;;;;;;6.60;4.60;;;;;;;5.85;31.57;100600.03;5082484;28;20598;-66
2022/03/12 06:41:38;;;;;;;8.20;4.90;;;;;;;6.48;30.80;100602.94;5086635;28;20507;-66
2022/03/12 06:44:06;;;;;;;6.43;4.90;;;;;;;6.25;30.81;100605.34;5103127;28;20516;-64
2022/03/12 06:46:34;;;;;;;7.17;5.20;;;;;;;6.17;31.32;100608.50;5101292;28;20432;-65
2022/03/12 06:49:01;;;;;;;7.73;4.93;;;;;;;6.38;30.56;100622.13;5091748;28;21040;-66
2022/03/12 06:51:27;;;;;;;5.60;4.10;;;;;;;6.89;29.81;100621.31;5085537;28;20454;-65
2022/03/12 06:53:55;;;;;;;6.73;4.70;;;;;;;7.29;29.37;100631.75;5080507;28;20427;-64
2022/03/12 06:56:22;;;;;;;4.53;4.10;;;;;;;7.93;28.56;100638.66;5090158;28;20514;-70
2022/03/12 06:58:51;;;;;;;5.10;4.27;;;;;;;8.92;27.34;100626.69;5102942;28;20450;-68
2022/03/12 07:01:17;;;;;;;7.37;5.00;;;;;;;9.09;26.97;100624.53;5096626;28;20454;-70
2022/03/12 07:03:45;;;;;;;6.67;4.83;;;;;;;9.23;26.16;100640.28;5075646;28;20471;-68
2022/03/12 07:06:11;;;;;;;7.10;4.97;;;;;;;9.56;25.86;100635.84;5081875;28;20516;-68
2022/03/12 07:08:38;;;;;;;5.83;4.63;;;;;;;9.48;26.33;100632.97;5083085;28;20466;-69
2022/03/12 07:11:06;;;;;;;7.57;5.07;;;;;;;10.20;25.61;100642.22;5085348;28;20494;-75
2022/03/12 07:13:34;;;;;;;6.60;5.03;;;;;;;10.61;25.33;100636.06;5082495;28;20428;-81
2022/03/12 07:16:03;;;;;;;8.10;4.70;;;;;;;10.94;24.68;100644.84;5094024;28;20542;-76
2022/03/12 07:18:30;;;;;;;7.93;5.80;;;;;;;12.01;23.52;100634.44;5101927;28;20445;-71
2022/03/12 07:20:56;;;;;;;6.77;5.17;;;;;;;11.80;23.58;100633.69;5083668;28;20455;-70
2022/03/12 07:23:23;;;;;;;6.20;4.67;;;;;;;12.11;23.22;100639.78;5098977;28;20443;-69
2022/03/12 07:25:52;;;;;;;7.30;4.80;;;;;;;12.47;23.55;100647.28;5102148;28;20485;-70
2022/03/12 07:28:20;;;;;;;7.73;4.77;;;;;;;12.83;23.03;100642.97;5102295;28;20439;-72
2022/03/12 07:30:50;;;;;;;6.53;5.20;;;;;;;12.54;22.90;100656.44;5099640;28;20455;-75
2022/03/12 07:33:18;;;;;;;8.03;5.37;;;;;;;12.89;22.72;100645.03;5081705;28;20430;-72
2022/03/12 07:35:48;;;;;;;6.10;4.80;;;;;;;12.73;22.69;100640.28;5081045;28;20584;-73
2022/03/12 07:38:14;;;;;;;6.73;4.80;;;;;;;12.73;22.69;100642.97;5081095;28;20506;-71
2022/03/12 07:40:41;;;;;;;6.60;4.97;;;;;;;12.23;23.47;100643.19;5081514;28;20941;-71
2022/03/12 07:43:08;;;;;;;8.40;5.60;;;;;;;12.67;23.05;100637.34;5091966;28;20462;-72
2022/03/12 07:45:35;;;;;;;6.93;5.13;;;;;;;13.40;22.85;100637.50;5094328;28;20455;-72
2022/03/12 07:48:02;;;;;;;7.30;5.50;;;;;;;13.53;22.42;100637.16;5099935;28;20444;-69
2022/03/12 07:50:30;;;;;;;6.90;5.23;;;;;;;14.31;22.26;100636.59;5093026;28;20478;-69
2022/03/12 07:52:57;;;;;;;5.73;4.87;;;;;;;14.38;21.83;100634.97;5081624;28;20459;-71
2022/03/12 07:55:24;;;;;;;9.10;5.03;;;;;;;12.58;24.01;100644.41;5081114;28;20436;-70
2022/03/12 07:57:54;;;;;;;9.77;5.47;;;;;;;12.65;24.52;100639.31;5081392;28;20472;-72
2022/03/12 08:00:20;;;;;;;9.37;6.07;;;;;;;12.33;24.70;100644.03;5092924;28;20462;-72
2022/03/12 08:02:49;;;;;;;5.20;4.70;;;;;;;11.80;25.87;100647.06;5102099;28;20543;-70
2022/03/12 08:05:19;;;;;;;7.70;5.60;;;;;;;11.47;25.97;100647.31;5081333;28;20804;-73
2022/03/12 08:07:47;;;;;;;7.97;5.93;;;;;;;11.91;25.65;100648.81;5087476;28;20452;-70
2022/03/12 08:10:14;;;;;;;7.70;5.70;;;;;;;12.52;25.61;100650.38;5081178;28;20452;-70
2022/03/12 08:12:41;;;;;;;10.53;5.40;;;;;;;11.26;26.61;100641.16;5088896;28;20452;-72
2022/03/12 08:15:11;;;;;;;7.07;5.43;;;;;;;11.92;26.62;100635.28;5081013;28;20458;-69
2022/03/12 08:17:38;;;;;;;7.70;5.60;;;;;;;12.44;26.20;100651.91;5081513;28;20480;-70
2022/03/12 08:20:07;;;;;;;8.43;6.00;;;;;;;12.28;26.70;100656.16;5090622;28;20584;-72
2022/03/12 08:22:35;;;;;;;7.80;5.07;;;;;;;13.41;25.27;100649.94;5100718;28;20447;-69
2022/03/12 08:25:03;;;;;;;7.33;5.50;;;;;;;13.40;25.35;100653.63;5089492;28;20470;-73
2022/03/12 08:27:30;;;;;;;7.10;4.90;;;;;;;13.18;25.70;100653.00;5083105;28;20433;-71
2022/03/12 08:29:57;;;;;;;6.60;5.77;;;;;;;13.36;24.99;100662.97;5092042;28;20459;-69
2022/03/12 08:32:24;;;;;;;8.33;5.97;;;;;;;12.77;26.48;100657.78;5101437;28;20435;-71
2022/03/12 08:34:50;;;;;;;7.60;6.00;;;;;;;13.66;25.71;100659.16;5094656;28;20452;-69
2022/03/12 08:37:17;;;;;;;5.90;5.30;;;;;;;14.64;24.35;100664.63;5101155;28;20497;-73
2022/03/12 08:39:44;;;;;;;5.93;5.00;;;;;;;14.67;24.53;100663.47;5102235;28;20506;-72
2022/03/12 08:42:12;;;;;;;6.90;5.30;;;;;;;15.06;24.43;100655.78;5065184;28;21014;-73
2022/03/12 08:44:39;;;;;;;6.60;5.47;;;;;;;13.18;25.99;100654.84;5082204;28;20845;-73
2022/03/12 08:47:07;;;;;;;9.80;5.37;;;;;;;13.97;25.96;100657.97;5095933;28;20503;-73
2022/03/12 08:49:35;;;;;;;7.57;5.77;;;;;;;14.35;24.65;100669.41;5092403;28;20455;-69
2022/03/12 08:52:01;;;;;;;8.83;5.37;;;;;;;14.59;25.39;100669.63;5096347;28;20461;-74
2022/03/12 08:54:28;;;;;;;7.57;5.53;;;;;;;16.06;23.56;100663.28;5094726;28;20432;-73
2022/03/12 08:56:55;;;;;;;11.50;5.40;;;;;;;15.74;23.77;100661.31;5067033;28;20503;-70
2022/03/12 08:59:23;;;;;;;6.13;5.30;;;;;;;14.30;25.34;100665.34;5098315;28;20447;-73
2022/03/12 09:01:50;;;;;;;7.13;5.47;;;;;;;15.63;24.19;100660.59;5090203;28;20977;-73
2022/03/12 09:04:19;;;;;;;7.70;5.30;;;;;;;16.70;23.16;100673.38;5087254;28;20474;-73
2022/03/12 09:06:46;;;;;;;7.23;6.50;;;;;;;16.57;23.06;100661.25;5064212;28;20484;-73
2022/03/12 09:09:13;;;;;;;7.43;5.27;;;;;;;17.71;21.94;100653.00;5064603;28;20441;-73
2022/03/12 09:11:40;;;;;;;5.70;5.10;;;;;;;17.47;20.79;100657.50;5064811;28;20429;-74
2022/03/12 09:14:07;;;;;;;6.70;6.00;;;;;;;17.24;21.09;100646.63;5064220;28;20457;-73
2022/03/12 09:16:36;;;;;;;5.83;5.23;;;;;;;17.01;21.29;100638.44;5064547;28;20433;-73
2022/03/12 09:19:03;;;;;;;6.33;5.40;;;;;;;18.01;20.59;100643.22;5063591;28;20512;-74
2022/03/12 09:21:30;;;;;;;10.67;6.00;;;;;;;18.92;20.61;100634.31;5066133;28;20452;-73
2022/03/12 09:23:57;;;;;;;6.73;6.07;;;;;;;17.96;21.29;100642.06;5084361;28;20452;-73
2022/03/12 09:26:23;;;;;;;9.07;5.43;;;;;;;17.84;21.33;100641.59;5078894;28;20483;-72
2022/03/12 09:28:50;;;;;;;7.20;5.80;;;;;;;17.45;22.62;100640.63;5063883;28;20433;-71
2022/03/12 09:31:17;;;;;;;8.33;5.87;;;;;;;17.40;22.49;100643.03;5063305;28;20888;-72
2022/03/12 09:33:45;;;;;;;8.70;5.83;;;;;;;15.79;23.51;100637.41;5063159;28;20429;-73
2022/03/12 09:36:12;;;;;;;10.00;6.77;;;;;;;15.47;25.72;100638.13;5063360;28;20471;-73
2022/03/12 09:38:39;;;;;;;7.87;5.13;;;;;;;15.84;25.75;100642.31;5063404;28;20565;-73
2022/03/12 09:41:06;;;;;;;7.20;5.80;;;;;;;15.53;26.37;100650.97;5062776;28;20451;-73
2022/03/12 09:43:33;;;;;;;6.30;5.03;;;;;;;16.31;24.71;100649.78;5063468;28;20425;-74
2022/03/12 09:46:00;;;;;;;7.63;5.63;;;;;;;15.77;25.38;100653.75;5063345;28;20453;-72
2022/03/12 09:48:27;;;;;;;7.40;5.30;;;;;;;14.74;27.14;100653.78;5062293;28;20425;-73
2022/03/12 09:50:55;;;;;;;9.70;5.43;;;;;;;15.46;26.62;100658.00;5062077;28;20460;-73
2022/03/12 09:53:22;;;;;;;6.47;5.63;;;;;;;15.04;26.37;100649.72;5077600;28;20511;-74
2022/03/12 09:55:49;;;;;;;8.97;6.00;;;;;;;16.40;25.12;100661.44;5082364;28;20444;-73
2022/03/12 09:58:16;;;;;;;7.00;5.77;;;;;;;16.28;25.38;100659.06;5083046;28;20479;-74
2022/03/12 10:00:43;;;;;;;6.93;5.70;;;;;;;15.09;26.45;100651.97;5083203;28;20504;-72
2022/03/12 10:03:09;;;;;;;7.30;5.70;;;;;;;15.31;26.68;100657.78;5085221;28;20460;-72
2022/03/12 10:05:36;;;;;;;9.20;5.87;;;;;;;15.94;26.05;100656.50;5087527;28;20455;-73
2022/03/12 10:08:04;;;;;;;6.87;5.67;;;;;;;16.05;26.46;100658.03;5082636;28;20478;-73
2022/03/12 10:10:32;;;;;;;9.97;6.30;;;;;;;16.73;25.74;100655.00;5100357;28;20466;-74
2022/03/12 10:12:59;;;;;;;5.90;5.23;;;;;;;15.73;27.07;100648.84;5092391;28;20444;-72
2022/03/12 10:15:27;;;;;;;8.40;6.33;;;;;;;15.02;27.62;100656.28;5082947;28;20931;-73
2022/03/12 10:17:53;;;;;;;8.47;6.07;;;;;;;15.24;27.64;100655.75;5081689;28;20518;-73
2022/03/12 10:20:21;;;;;;;6.40;5.33;;;;;;;15.71;27.19;100653.53;5078252;28;20524;-74
2022/03/12 10:22:48;;;;;;;6.70;5.33;;;;;;;16.05;25.73;100653.47;5096500;28;20455;-73
2022/03/12 10:25:17;;;;;;;7.40;5.23;;;;;;;16.45;25.44;100664.47;5102992;28;20455;-74
2022/03/12 10:27:43;;;;;;;7.10;6.00;;;;;;;16.05;26.62;100644.56;5102322;28;20424;-73
2022/03/12 10:30:11;;;;;;;6.90;6.20;;;;;;;14.49;28.60;100644.63;5102358;28;20475;-72
2022/03/12 10:32:44;;;;;;;10.37;6.93;;;;;;;15.38;27.81;100635.44;5102276;28;20435;-72
2022/03/12 10:35:12;;;;;;;7.43;6.67;;;;;;;15.23;28.03;100651.34;5098878;28;20443;-73
2022/03/12 10:37:39;;;;;;;8.73;6.23;;;;;;;14.99;28.83;100653.91;5091290;28;20494;-70
2022/03/12 10:40:09;;;;;;;7.20;5.90;;;;;;;15.33;27.46;100645.84;5102391;28;20478;-73
2022/03/12 10:42:39;;;;;;;7.40;5.97;;;;;;;15.40;27.32;100649.56;5097843;28;20448;-73
2022/03/12 10:45:11;;;;;;;9.80;6.10;;;;;;;16.16;27.25;100657.69;5081246;28;20456;-72
2022/03/12 10:47:43;;;;;;;7.87;6.70;;;;;;;16.93;26.65;100647.41;5080538;28;20462;-72
2022/03/12 10:50:14;;;;;;;7.10;5.83;;;;;;;16.93;25.69;100652.81;5081047;28;20449;-71
2022/03/12 10:52:47;;;;;;;7.73;5.83;;;;;;;17.02;26.17;100650.09;5096370;28;20454;-73
2022/03/12 10:55:18;;;;;;;9.47;6.50;;;;;;;15.86;27.77;100649.22;5100040;28;20457;-73
2022/03/12 10:58:08;;;;;;;8.50;6.60;;;;;;;16.60;27.85;100654.69;5088829;28;20507;-72
2022/03/12 11:00:37;;;;;;;7.60;6.20;;;;;;;15.68;28.62;100654.72;5082441;28;20542;-72
2022/03/12 11:03:10;;;;;;;7.03;5.87;;;;;;;16.75;26.82;100654.81;5082377;28;20432;-74
2022/03/12 11:05:38;;;;;;;8.00;6.77;;;;;;;17.29;26.05;100652.38;5082670;28;20448;-74
2022/03/12 11:08:18;;;;;;;10.93;7.30;;;;;;;16.25;28.09;100656.72;5095789;28;20447;-74
2022/03/12 11:10:51;;;;;;;8.50;6.47;;;;;;;15.77;30.12;100666.41;5098604;28;20454;-73
2022/03/12 11:13:36;;;;;;;7.13;6.40;;;;;;;16.88;29.35;100670.53;5094604;28;20440;-74
2022/03/12 11:16:22;;;;;;;8.30;7.23;;;;;;;16.00;28.15;100663.91;5082833;28;20447;-74
2022/03/12 11:19:01;;;;;;;7.37;6.60;;;;;;;16.31;27.60;100672.22;5083122;28;20533;-74
2022/03/12 11:21:29;;;;;;;7.50;6.70;;;;;;;15.23;30.81;100680.97;5094454;28;20545;-74
2022/03/12 11:23:58;;;;;;;7.50;6.17;;;;;;;15.31;32.91;100672.09;5086479;28;20452;-72
2022/03/12 11:26:25;;;;;;;7.33;6.57;;;;;;;15.71;31.44;100672.41;5088158;28;20451;-75
2022/03/12 11:28:56;;;;;;;8.90;6.97;;;;;;;15.66;30.92;100667.53;5082731;28;20436;-72
2022/03/12 11:31:38;;;;;;;13.00;6.93;;;;;;;14.96;31.80;100665.84;5096364;28;20482;-74
2022/03/12 11:34:19;;;;;;;10.00;6.33;;;;;;;16.46;29.83;100675.09;5087544;28;20443;-73